sensor_id;sensor_type;location;lat;lon;timestamp;P1;durP1;ratioP1;P2;durP2;ratioP2
30127;SDS011;16942;53.196;6.592;2023-09-12T00:00:11;39.45;;;26.60;;
30127;SDS011;16942;53.196;6.592;2023-09-12T00:02:37;49.83;;;29.73;;
30127;SDS011;16942;53.196;6.592;2023-09-12T00:05:03;44.33;;;29.10;;
30127;SDS011;16942;53.196;6.592;2023-09-12T00:07:30;43.33;;;26.17;;
30127;SDS011;16942;53.196;6.592;2023-09-12T00:09:55;40.10;;;27.02;;
30127;SDS011;16942;53.196;6.592;2023-09-12T00:12:22;40.67;;;27.10;;
30127;SDS011;16942;53.196;6.592;2023-09-12T00:14:49;41.53;;;26.52;;
30127;SDS011;16942;53.196;6.592;2023-09-12T00:17:16;45.45;;;28.10;;
30127;SDS011;16942;53.196;6.592;2023-09-12T00:19:42;40.08;;;25.95;;
30127;SDS011;16942;53.196;6.592;2023-09-12T00:22:08;44.13;;;27.77;;
30127;SDS011;16942;53.196;6.592;2023-09-12T00:24:34;40.40;;;27.42;;
30127;SDS011;16942;53.196;6.592;2023-09-12T00:27:00;44.08;;;26.98;;
30127;SDS011;16942;53.196;6.592;2023-09-12T00:29:29;41.03;;;27.20;;
30127;SDS011;16942;53.196;6.592;2023-09-12T00:31:55;43.25;;;28.10;;
30127;SDS011;16942;53.196;6.592;2023-09-12T00:34:21;47.45;;;27.83;;
30127;SDS011;16942;53.196;6.592;2023-09-12T00:36:47;39.10;;;26.10;;
30127;SDS011;16942;53.196;6.592;2023-09-12T00:39:13;44.03;;;26.30;;
30127;SDS011;16942;53.196;6.592;2023-09-12T00:41:39;49.13;;;28.77;;
30127;SDS011;16942;53.196;6.592;2023-09-12T00:44:05;42.33;;;26.27;;
30127;SDS011;16942;53.196;6.592;2023-09-12T00:46:32;41.65;;;26.77;;
30127;SDS011;16942;53.196;6.592;2023-09-12T00:48:58;41.13;;;25.92;;
30127;SDS011;16942;53.196;6.592;2023-09-12T00:51:24;41.35;;;26.70;;
30127;SDS011;16942;53.196;6.592;2023-09-12T00:53:51;43.97;;;27.17;;
30127;SDS011;16942;53.196;6.592;2023-09-12T00:56:19;35.90;;;25.33;;
30127;SDS011;16942;53.196;6.592;2023-09-12T00:58:45;41.10;;;27.60;;
30127;SDS011;16942;53.196;6.592;2023-09-12T01:01:11;43.38;;;27.13;;
30127;SDS011;16942;53.196;6.592;2023-09-12T01:03:37;43.92;;;28.77;;
30127;SDS011;16942;53.196;6.592;2023-09-12T01:06:03;42.83;;;27.52;;
30127;SDS011;16942;53.196;6.592;2023-09-12T01:08:30;49.97;;;30.50;;
30127;SDS011;16942;53.196;6.592;2023-09-12T01:10:56;48.67;;;30.23;;
30127;SDS011;16942;53.196;6.592;2023-09-12T01:13:24;44.80;;;28.50;;
30127;SDS011;16942;53.196;6.592;2023-09-12T01:15:50;47.47;;;31.50;;
30127;SDS011;16942;53.196;6.592;2023-09-12T01:18:16;49.13;;;31.58;;
30127;SDS011;16942;53.196;6.592;2023-09-12T01:20:43;42.70;;;28.80;;
30127;SDS011;16942;53.196;6.592;2023-09-12T01:28:29;41.60;;;27.50;;
30127;SDS011;16942;53.196;6.592;2023-09-12T01:30:59;44.60;;;28.40;;
30127;SDS011;16942;53.196;6.592;2023-09-12T01:33:27;49.97;;;31.55;;
30127;SDS011;16942;53.196;6.592;2023-09-12T01:35:53;43.35;;;28.63;;
30127;SDS011;16942;53.196;6.592;2023-09-12T01:38:20;46.42;;;29.85;;
30127;SDS011;16942;53.196;6.592;2023-09-12T01:40:50;47.38;;;30.02;;
30127;SDS011;16942;53.196;6.592;2023-09-12T01:43:17;51.05;;;32.95;;
30127;SDS011;16942;53.196;6.592;2023-09-12T01:45:44;50.47;;;32.85;;
30127;SDS011;16942;53.196;6.592;2023-09-12T01:48:10;47.33;;;30.02;;
30127;SDS011;16942;53.196;6.592;2023-09-12T01:50:37;47.45;;;30.60;;
30127;SDS011;16942;53.196;6.592;2023-09-12T01:53:03;50.80;;;31.70;;
30127;SDS011;16942;53.196;6.592;2023-09-12T01:55:29;51.55;;;31.42;;
30127;SDS011;16942;53.196;6.592;2023-09-12T01:57:56;52.40;;;32.55;;
30127;SDS011;16942;53.196;6.592;2023-09-12T02:00:23;50.17;;;32.00;;
30127;SDS011;16942;53.196;6.592;2023-09-12T02:02:49;46.45;;;30.58;;
30127;SDS011;16942;53.196;6.592;2023-09-12T02:05:16;50.35;;;31.77;;
30127;SDS011;16942;53.196;6.592;2023-09-12T02:07:43;52.20;;;32.17;;
30127;SDS011;16942;53.196;6.592;2023-09-12T02:10:10;50.38;;;32.53;;
30127;SDS011;16942;53.196;6.592;2023-09-12T02:12:36;52.80;;;33.67;;
30127;SDS011;16942;53.196;6.592;2023-09-12T02:15:02;55.25;;;32.80;;
30127;SDS011;16942;53.196;6.592;2023-09-12T02:17:28;47.10;;;30.33;;
30127;SDS011;16942;53.196;6.592;2023-09-12T02:19:54;49.10;;;30.70;;
30127;SDS011;16942;53.196;6.592;2023-09-12T02:22:20;54.47;;;31.20;;
30127;SDS011;16942;53.196;6.592;2023-09-12T02:24:46;52.30;;;31.27;;
30127;SDS011;16942;53.196;6.592;2023-09-12T02:27:12;49.65;;;30.33;;
30127;SDS011;16942;53.196;6.592;2023-09-12T02:29:39;51.35;;;31.35;;
30127;SDS011;16942;53.196;6.592;2023-09-12T02:32:05;46.97;;;30.23;;
30127;SDS011;16942;53.196;6.592;2023-09-12T02:34:32;53.83;;;31.10;;
30127;SDS011;16942;53.196;6.592;2023-09-12T02:36:58;50.50;;;30.50;;
30127;SDS011;16942;53.196;6.592;2023-09-12T02:39:24;52.97;;;31.47;;
30127;SDS011;16942;53.196;6.592;2023-09-12T02:41:50;53.37;;;30.90;;
30127;SDS011;16942;53.196;6.592;2023-09-12T02:44:16;55.13;;;35.15;;
30127;SDS011;16942;53.196;6.592;2023-09-12T02:46:42;54.87;;;33.40;;
30127;SDS011;16942;53.196;6.592;2023-09-12T02:49:08;55.43;;;34.47;;
30127;SDS011;16942;53.196;6.592;2023-09-12T02:51:37;56.73;;;34.00;;
30127;SDS011;16942;53.196;6.592;2023-09-12T02:54:03;54.47;;;33.80;;
30127;SDS011;16942;53.196;6.592;2023-09-12T02:56:29;53.07;;;34.17;;
30127;SDS011;16942;53.196;6.592;2023-09-12T02:58:55;54.17;;;33.83;;
30127;SDS011;16942;53.196;6.592;2023-09-12T03:01:25;57.07;;;35.77;;
30127;SDS011;16942;53.196;6.592;2023-09-12T03:03:53;58.73;;;34.80;;
30127;SDS011;16942;53.196;6.592;2023-09-12T03:06:19;53.33;;;32.77;;
30127;SDS011;16942;53.196;6.592;2023-09-12T03:08:46;50.08;;;31.17;;
30127;SDS011;16942;53.196;6.592;2023-09-12T03:11:12;48.65;;;28.98;;
30127;SDS011;16942;53.196;6.592;2023-09-12T03:13:38;59.42;;;33.83;;
30127;SDS011;16942;53.196;6.592;2023-09-12T03:16:04;51.27;;;32.57;;
30127;SDS011;16942;53.196;6.592;2023-09-12T03:18:31;56.25;;;31.02;;
30127;SDS011;16942;53.196;6.592;2023-09-12T03:20:57;50.97;;;32.63;;
30127;SDS011;16942;53.196;6.592;2023-09-12T03:23:23;53.63;;;31.90;;
30127;SDS011;16942;53.196;6.592;2023-09-12T03:25:49;48.43;;;30.07;;
30127;SDS011;16942;53.196;6.592;2023-09-12T03:28:15;53.08;;;31.27;;
30127;SDS011;16942;53.196;6.592;2023-09-12T03:30:41;48.10;;;29.40;;
30127;SDS011;16942;53.196;6.592;2023-09-12T03:33:07;50.67;;;30.02;;
30127;SDS011;16942;53.196;6.592;2023-09-12T03:35:33;53.33;;;31.08;;
30127;SDS011;16942;53.196;6.592;2023-09-12T03:38:00;49.22;;;31.63;;
30127;SDS011;16942;53.196;6.592;2023-09-12T03:40:29;53.67;;;31.38;;
30127;SDS011;16942;53.196;6.592;2023-09-12T03:42:58;50.97;;;31.23;;
30127;SDS011;16942;53.196;6.592;2023-09-12T03:45:24;48.53;;;30.23;;
30127;SDS011;16942;53.196;6.592;2023-09-12T03:47:51;46.60;;;28.35;;
30127;SDS011;16942;53.196;6.592;2023-09-12T03:50:17;45.47;;;28.77;;
30127;SDS011;16942;53.196;6.592;2023-09-12T03:52:43;47.67;;;29.40;;
30127;SDS011;16942;53.196;6.592;2023-09-12T03:55:09;48.67;;;29.83;;
30127;SDS011;16942;53.196;6.592;2023-09-12T03:57:35;47.77;;;29.57;;
30127;SDS011;16942;53.196;6.592;2023-09-12T04:00:01;51.60;;;30.63;;
30127;SDS011;16942;53.196;6.592;2023-09-12T04:02:31;46.38;;;28.92;;
30127;SDS011;16942;53.196;6.592;2023-09-12T04:04:57;48.50;;;29.17;;
30127;SDS011;16942;53.196;6.592;2023-09-12T04:07:24;45.70;;;28.13;;
30127;SDS011;16942;53.196;6.592;2023-09-12T04:09:50;49.93;;;30.37;;
30127;SDS011;16942;53.196;6.592;2023-09-12T04:12:16;56.97;;;33.20;;
30127;SDS011;16942;53.196;6.592;2023-09-12T04:14:42;52.70;;;31.87;;
30127;SDS011;16942;53.196;6.592;2023-09-12T04:17:08;54.23;;;30.50;;
30127;SDS011;16942;53.196;6.592;2023-09-12T04:19:34;49.53;;;29.77;;
30127;SDS011;16942;53.196;6.592;2023-09-12T04:22:00;54.53;;;32.73;;
30127;SDS011;16942;53.196;6.592;2023-09-12T04:24:26;52.40;;;31.73;;
30127;SDS011;16942;53.196;6.592;2023-09-12T04:26:53;54.67;;;32.03;;
30127;SDS011;16942;53.196;6.592;2023-09-12T04:29:19;51.87;;;30.77;;
30127;SDS011;16942;53.196;6.592;2023-09-12T04:31:45;51.87;;;30.20;;
30127;SDS011;16942;53.196;6.592;2023-09-12T04:34:11;58.57;;;33.40;;
30127;SDS011;16942;53.196;6.592;2023-09-12T04:36:37;53.53;;;30.90;;
30127;SDS011;16942;53.196;6.592;2023-09-12T04:39:03;50.37;;;30.97;;
30127;SDS011;16942;53.196;6.592;2023-09-12T04:41:30;53.93;;;31.47;;
30127;SDS011;16942;53.196;6.592;2023-09-12T04:43:56;59.23;;;32.53;;
30127;SDS011;16942;53.196;6.592;2023-09-12T04:46:24;51.53;;;31.83;;
30127;SDS011;16942;53.196;6.592;2023-09-12T04:48:50;54.47;;;31.33;;
30127;SDS011;16942;53.196;6.592;2023-09-12T04:51:16;56.37;;;30.97;;
30127;SDS011;16942;53.196;6.592;2023-09-12T04:53:42;54.90;;;31.90;;
30127;SDS011;16942;53.196;6.592;2023-09-12T04:56:09;54.93;;;31.43;;
30127;SDS011;16942;53.196;6.592;2023-09-12T04:58:35;53.30;;;30.73;;
30127;SDS011;16942;53.196;6.592;2023-09-12T05:01:01;59.97;;;31.97;;
30127;SDS011;16942;53.196;6.592;2023-09-12T05:03:27;56.67;;;32.07;;
30127;SDS011;16942;53.196;6.592;2023-09-12T05:05:54;52.90;;;29.37;;
30127;SDS011;16942;53.196;6.592;2023-09-12T05:08:20;48.50;;;27.37;;
30127;SDS011;16942;53.196;6.592;2023-09-12T05:10:46;48.23;;;29.00;;
30127;SDS011;16942;53.196;6.592;2023-09-12T05:13:12;48.13;;;29.33;;
30127;SDS011;16942;53.196;6.592;2023-09-12T05:15:40;55.77;;;29.23;;
30127;SDS011;16942;53.196;6.592;2023-09-12T05:18:06;47.73;;;28.17;;
30127;SDS011;16942;53.196;6.592;2023-09-12T05:20:33;52.27;;;29.27;;
30127;SDS011;16942;53.196;6.592;2023-09-12T05:22:59;50.73;;;27.97;;
30127;SDS011;16942;53.196;6.592;2023-09-12T05:25:25;50.23;;;30.10;;
30127;SDS011;16942;53.196;6.592;2023-09-12T05:27:55;57.87;;;31.53;;
30127;SDS011;16942;53.196;6.592;2023-09-12T05:30:21;58.40;;;32.23;;
30127;SDS011;16942;53.196;6.592;2023-09-12T05:32:47;63.83;;;33.00;;
30127;SDS011;16942;53.196;6.592;2023-09-12T05:35:13;58.87;;;33.70;;
30127;SDS011;16942;53.196;6.592;2023-09-12T05:37:39;57.93;;;32.17;;
30127;SDS011;16942;53.196;6.592;2023-09-12T05:40:05;67.77;;;37.40;;
30127;SDS011;16942;53.196;6.592;2023-09-12T05:42:31;66.77;;;34.87;;
30127;SDS011;16942;53.196;6.592;2023-09-12T05:44:57;69.43;;;37.27;;
30127;SDS011;16942;53.196;6.592;2023-09-12T05:47:23;63.87;;;34.30;;
30127;SDS011;16942;53.196;6.592;2023-09-12T05:49:49;61.33;;;33.50;;
30127;SDS011;16942;53.196;6.592;2023-09-12T05:52:15;63.27;;;33.13;;
30127;SDS011;16942;53.196;6.592;2023-09-12T05:54:42;59.63;;;32.10;;
30127;SDS011;16942;53.196;6.592;2023-09-12T05:57:09;54.37;;;30.47;;
30127;SDS011;16942;53.196;6.592;2023-09-12T05:59:36;64.33;;;34.23;;
30127;SDS011;16942;53.196;6.592;2023-09-12T06:02:02;67.17;;;36.00;;
30127;SDS011;16942;53.196;6.592;2023-09-12T06:04:29;60.53;;;32.73;;
30127;SDS011;16942;53.196;6.592;2023-09-12T06:06:55;66.87;;;33.40;;
30127;SDS011;16942;53.196;6.592;2023-09-12T06:09:21;67.07;;;36.13;;
30127;SDS011;16942;53.196;6.592;2023-09-12T06:11:47;63.85;;;32.25;;
30127;SDS011;16942;53.196;6.592;2023-09-12T06:14:13;70.97;;;36.37;;
30127;SDS011;16942;53.196;6.592;2023-09-12T06:16:39;68.13;;;34.38;;
30127;SDS011;16942;53.196;6.592;2023-09-12T06:19:05;70.63;;;35.60;;
30127;SDS011;16942;53.196;6.592;2023-09-12T06:21:31;78.40;;;36.97;;
30127;SDS011;16942;53.196;6.592;2023-09-12T06:24:10;74.25;;;35.45;;
30127;SDS011;16942;53.196;6.592;2023-09-12T06:26:37;79.53;;;35.80;;
30127;SDS011;16942;53.196;6.592;2023-09-12T06:29:03;70.90;;;32.83;;
30127;SDS011;16942;53.196;6.592;2023-09-12T06:31:29;70.67;;;32.30;;
30127;SDS011;16942;53.196;6.592;2023-09-12T06:33:55;68.80;;;33.40;;
30127;SDS011;16942;53.196;6.592;2023-09-12T06:36:22;72.45;;;31.45;;
30127;SDS011;16942;53.196;6.592;2023-09-12T06:38:49;73.37;;;34.43;;
30127;SDS011;16942;53.196;6.592;2023-09-12T06:41:15;73.13;;;33.58;;
30127;SDS011;16942;53.196;6.592;2023-09-12T06:43:43;71.10;;;32.63;;
30127;SDS011;16942;53.196;6.592;2023-09-12T06:46:09;75.43;;;33.23;;
30127;SDS011;16942;53.196;6.592;2023-09-12T06:48:35;83.43;;;36.63;;
30127;SDS011;16942;53.196;6.592;2023-09-12T06:51:04;72.97;;;33.00;;
30127;SDS011;16942;53.196;6.592;2023-09-12T06:53:30;75.63;;;32.53;;
30127;SDS011;16942;53.196;6.592;2023-09-12T06:55:56;83.40;;;34.20;;
30127;SDS011;16942;53.196;6.592;2023-09-12T06:58:24;82.80;;;34.83;;
30127;SDS011;16942;53.196;6.592;2023-09-12T07:00:50;77.47;;;36.90;;
30127;SDS011;16942;53.196;6.592;2023-09-12T07:03:16;116.93;;;42.73;;
30127;SDS011;16942;53.196;6.592;2023-09-12T07:05:43;120.82;;;41.92;;
30127;SDS011;16942;53.196;6.592;2023-09-12T07:08:09;88.10;;;38.63;;
30127;SDS011;16942;53.196;6.592;2023-09-12T07:10:35;76.22;;;33.67;;
30127;SDS011;16942;53.196;6.592;2023-09-12T07:13:02;76.35;;;35.20;;
30127;SDS011;16942;53.196;6.592;2023-09-12T07:15:28;85.03;;;37.77;;
30127;SDS011;16942;53.196;6.592;2023-09-12T07:17:54;76.38;;;34.92;;
30127;SDS011;16942;53.196;6.592;2023-09-12T07:20:21;75.45;;;35.97;;
30127;SDS011;16942;53.196;6.592;2023-09-12T07:22:50;70.97;;;34.08;;
30127;SDS011;16942;53.196;6.592;2023-09-12T07:25:16;81.28;;;36.95;;
30127;SDS011;16942;53.196;6.592;2023-09-12T07:27:43;83.10;;;38.85;;
30127;SDS011;16942;53.196;6.592;2023-09-12T07:30:09;75.97;;;34.92;;
30127;SDS011;16942;53.196;6.592;2023-09-12T07:32:35;77.78;;;37.08;;
30127;SDS011;16942;53.196;6.592;2023-09-12T07:35:01;79.85;;;37.97;;
30127;SDS011;16942;53.196;6.592;2023-09-12T07:37:28;68.10;;;33.58;;
30127;SDS011;16942;53.196;6.592;2023-09-12T07:39:54;71.82;;;36.35;;
30127;SDS011;16942;53.196;6.592;2023-09-12T07:42:23;63.47;;;34.00;;
30127;SDS011;16942;53.196;6.592;2023-09-12T07:44:49;59.95;;;33.15;;
30127;SDS011;16942;53.196;6.592;2023-09-12T07:47:15;66.72;;;34.75;;
30127;SDS011;16942;53.196;6.592;2023-09-12T07:49:41;63.15;;;35.95;;
30127;SDS011;16942;53.196;6.592;2023-09-12T07:52:07;62.17;;;33.03;;
30127;SDS011;16942;53.196;6.592;2023-09-12T07:54:33;57.80;;;32.72;;
30127;SDS011;16942;53.196;6.592;2023-09-12T07:56:59;53.92;;;30.58;;
30127;SDS011;16942;53.196;6.592;2023-09-12T07:59:25;59.88;;;33.70;;
30127;SDS011;16942;53.196;6.592;2023-09-12T08:01:51;53.97;;;31.48;;
30127;SDS011;16942;53.196;6.592;2023-09-12T08:04:17;58.85;;;32.15;;
30127;SDS011;16942;53.196;6.592;2023-09-12T08:06:43;58.58;;;31.45;;
30127;SDS011;16942;53.196;6.592;2023-09-12T08:09:09;59.75;;;33.80;;
30127;SDS011;16942;53.196;6.592;2023-09-12T08:11:35;62.10;;;34.53;;
30127;SDS011;16942;53.196;6.592;2023-09-12T08:14:01;64.40;;;33.13;;
30127;SDS011;16942;53.196;6.592;2023-09-12T08:16:27;55.67;;;32.15;;
30127;SDS011;16942;53.196;6.592;2023-09-12T08:18:53;58.45;;;32.95;;
30127;SDS011;16942;53.196;6.592;2023-09-12T08:21:19;65.80;;;35.00;;
30127;SDS011;16942;53.196;6.592;2023-09-12T08:23:45;57.97;;;32.33;;
30127;SDS011;16942;53.196;6.592;2023-09-12T08:26:12;62.78;;;33.78;;
30127;SDS011;16942;53.196;6.592;2023-09-12T08:28:37;61.90;;;34.33;;
30127;SDS011;16942;53.196;6.592;2023-09-12T08:31:04;58.58;;;32.78;;
30127;SDS011;16942;53.196;6.592;2023-09-12T08:33:30;62.13;;;34.72;;
30127;SDS011;16942;53.196;6.592;2023-09-12T08:35:58;59.97;;;33.10;;
30127;SDS011;16942;53.196;6.592;2023-09-12T08:38:24;65.35;;;35.10;;
30127;SDS011;16942;53.196;6.592;2023-09-12T08:40:50;63.63;;;35.30;;
30127;SDS011;16942;53.196;6.592;2023-09-12T08:43:17;58.42;;;33.45;;
30127;SDS011;16942;53.196;6.592;2023-09-12T08:45:43;58.67;;;33.00;;
30127;SDS011;16942;53.196;6.592;2023-09-12T08:48:10;57.35;;;32.70;;
30127;SDS011;16942;53.196;6.592;2023-09-12T08:50:37;56.85;;;32.58;;
30127;SDS011;16942;53.196;6.592;2023-09-12T08:53:03;53.17;;;31.45;;
30127;SDS011;16942;53.196;6.592;2023-09-12T08:55:30;46.70;;;28.52;;
30127;SDS011;16942;53.196;6.592;2023-09-12T08:58:04;44.83;;;27.30;;
30127;SDS011;16942;53.196;6.592;2023-09-12T09:00:30;50.58;;;27.38;;
30127;SDS011;16942;53.196;6.592;2023-09-12T09:02:57;44.38;;;26.55;;
30127;SDS011;16942;53.196;6.592;2023-09-12T09:05:23;49.75;;;28.40;;
30127;SDS011;16942;53.196;6.592;2023-09-12T09:07:50;53.30;;;32.45;;
30127;SDS011;16942;53.196;6.592;2023-09-12T09:10:17;45.60;;;28.58;;
30127;SDS011;16942;53.196;6.592;2023-09-12T09:12:44;54.88;;;28.95;;
30127;SDS011;16942;53.196;6.592;2023-09-12T09:15:24;46.28;;;28.75;;
30127;SDS011;16942;53.196;6.592;2023-09-12T09:17:51;48.13;;;28.98;;
30127;SDS011;16942;53.196;6.592;2023-09-12T09:20:21;47.28;;;29.52;;
30127;SDS011;16942;53.196;6.592;2023-09-12T09:22:55;47.67;;;28.42;;
30127;SDS011;16942;53.196;6.592;2023-09-12T09:25:21;46.55;;;26.92;;
30127;SDS011;16942;53.196;6.592;2023-09-12T09:27:47;48.30;;;27.50;;
30127;SDS011;16942;53.196;6.592;2023-09-12T09:30:13;48.80;;;28.45;;
30127;SDS011;16942;53.196;6.592;2023-09-12T09:32:39;47.20;;;28.75;;
30127;SDS011;16942;53.196;6.592;2023-09-12T09:35:06;47.72;;;28.23;;
30127;SDS011;16942;53.196;6.592;2023-09-12T09:37:33;54.75;;;26.42;;
30127;SDS011;16942;53.196;6.592;2023-09-12T09:39:59;45.55;;;28.80;;
30127;SDS011;16942;53.196;6.592;2023-09-12T09:42:25;43.72;;;26.27;;
30127;SDS011;16942;53.196;6.592;2023-09-12T09:44:54;43.88;;;27.92;;
30127;SDS011;16942;53.196;6.592;2023-09-12T09:47:20;49.25;;;28.08;;
30127;SDS011;16942;53.196;6.592;2023-09-12T09:49:46;52.30;;;30.13;;
30127;SDS011;16942;53.196;6.592;2023-09-12T09:52:12;54.50;;;30.88;;
30127;SDS011;16942;53.196;6.592;2023-09-12T09:54:42;54.17;;;30.70;;
30127;SDS011;16942;53.196;6.592;2023-09-12T09:57:09;51.08;;;30.48;;
30127;SDS011;16942;53.196;6.592;2023-09-12T09:59:36;47.90;;;29.05;;
30127;SDS011;16942;53.196;6.592;2023-09-12T10:02:02;63.88;;;31.50;;
30127;SDS011;16942;53.196;6.592;2023-09-12T10:04:29;47.80;;;29.52;;
30127;SDS011;16942;53.196;6.592;2023-09-12T10:06:57;48.03;;;28.20;;
30127;SDS011;16942;53.196;6.592;2023-09-12T10:09:27;76.65;;;30.15;;
30127;SDS011;16942;53.196;6.592;2023-09-12T10:11:54;47.95;;;29.10;;
30127;SDS011;16942;53.196;6.592;2023-09-12T10:14:21;51.10;;;30.42;;
30127;SDS011;16942;53.196;6.592;2023-09-12T10:16:48;40.97;;;25.80;;
30127;SDS011;16942;53.196;6.592;2023-09-12T10:19:17;48.33;;;29.80;;
30127;SDS011;16942;53.196;6.592;2023-09-12T10:24:29;41.45;;;27.35;;
30127;SDS011;16942;53.196;6.592;2023-09-12T10:26:55;42.17;;;24.98;;
30127;SDS011;16942;53.196;6.592;2023-09-12T10:29:22;43.85;;;27.88;;
30127;SDS011;16942;53.196;6.592;2023-09-12T10:31:48;41.85;;;24.30;;
30127;SDS011;16942;53.196;6.592;2023-09-12T10:34:15;44.55;;;26.02;;
30127;SDS011;16942;53.196;6.592;2023-09-12T10:36:42;44.10;;;27.98;;
30127;SDS011;16942;53.196;6.592;2023-09-12T10:39:09;41.47;;;24.98;;
30127;SDS011;16942;53.196;6.592;2023-09-12T10:41:37;42.78;;;26.50;;
30127;SDS011;16942;53.196;6.592;2023-09-12T10:44:05;45.78;;;27.27;;
30127;SDS011;16942;53.196;6.592;2023-09-12T10:46:35;46.05;;;26.23;;
30127;SDS011;16942;53.196;6.592;2023-09-12T10:49:03;40.22;;;26.95;;
30127;SDS011;16942;53.196;6.592;2023-09-12T10:51:29;49.20;;;28.80;;
30127;SDS011;16942;53.196;6.592;2023-09-12T10:53:55;47.58;;;29.48;;
30127;SDS011;16942;53.196;6.592;2023-09-12T10:56:22;46.67;;;28.35;;
30127;SDS011;16942;53.196;6.592;2023-09-12T11:01:30;44.55;;;27.13;;
30127;SDS011;16942;53.196;6.592;2023-09-12T11:03:56;45.17;;;28.67;;
30127;SDS011;16942;53.196;6.592;2023-09-12T11:06:23;45.30;;;26.35;;
30127;SDS011;16942;53.196;6.592;2023-09-12T11:11:38;42.70;;;27.10;;
30127;SDS011;16942;53.196;6.592;2023-09-12T11:14:07;45.13;;;26.35;;
30127;SDS011;16942;53.196;6.592;2023-09-12T11:16:33;39.85;;;26.23;;
30127;SDS011;16942;53.196;6.592;2023-09-12T11:21:51;42.97;;;25.15;;
30127;SDS011;16942;53.196;6.592;2023-09-12T11:24:17;38.45;;;24.95;;
30127;SDS011;16942;53.196;6.592;2023-09-12T11:26:56;39.00;;;26.38;;
30127;SDS011;16942;53.196;6.592;2023-09-12T11:29:35;47.05;;;25.83;;
30127;SDS011;16942;53.196;6.592;2023-09-12T11:32:02;49.83;;;25.60;;
30127;SDS011;16942;53.196;6.592;2023-09-12T11:34:29;42.47;;;26.33;;
30127;SDS011;16942;53.196;6.592;2023-09-12T11:36:57;35.03;;;24.25;;
30127;SDS011;16942;53.196;6.592;2023-09-12T11:39:26;38.67;;;24.95;;
30127;SDS011;16942;53.196;6.592;2023-09-12T11:41:53;36.35;;;21.77;;
30127;SDS011;16942;53.196;6.592;2023-09-12T11:44:20;39.85;;;25.90;;
30127;SDS011;16942;53.196;6.592;2023-09-12T11:46:48;41.45;;;25.27;;
30127;SDS011;16942;53.196;6.592;2023-09-12T11:49:17;35.15;;;23.73;;
30127;SDS011;16942;53.196;6.592;2023-09-12T11:54:14;31.35;;;21.90;;
30127;SDS011;16942;53.196;6.592;2023-09-12T11:56:40;41.47;;;27.95;;
30127;SDS011;16942;53.196;6.592;2023-09-12T11:59:06;37.22;;;25.27;;
30127;SDS011;16942;53.196;6.592;2023-09-12T12:01:33;40.35;;;26.65;;
30127;SDS011;16942;53.196;6.592;2023-09-12T12:03:59;38.92;;;23.90;;
30127;SDS011;16942;53.196;6.592;2023-09-12T12:06:25;34.40;;;22.80;;
30127;SDS011;16942;53.196;6.592;2023-09-12T12:08:51;42.28;;;25.88;;
30127;SDS011;16942;53.196;6.592;2023-09-12T12:11:19;36.58;;;22.75;;
30127;SDS011;16942;53.196;6.592;2023-09-12T12:13:48;30.40;;;20.85;;
30127;SDS011;16942;53.196;6.592;2023-09-12T12:16:18;36.30;;;24.17;;
30127;SDS011;16942;53.196;6.592;2023-09-12T12:18:44;37.08;;;24.52;;
30127;SDS011;16942;53.196;6.592;2023-09-12T12:21:10;34.40;;;22.67;;
30127;SDS011;16942;53.196;6.592;2023-09-12T12:23:36;32.83;;;22.25;;
30127;SDS011;16942;53.196;6.592;2023-09-12T12:26:03;32.38;;;20.20;;
30127;SDS011;16942;53.196;6.592;2023-09-12T12:28:30;31.23;;;20.33;;
30127;SDS011;16942;53.196;6.592;2023-09-12T12:30:56;28.58;;;20.33;;
30127;SDS011;16942;53.196;6.592;2023-09-12T12:33:23;32.95;;;21.27;;
30127;SDS011;16942;53.196;6.592;2023-09-12T12:35:54;30.48;;;19.83;;
30127;SDS011;16942;53.196;6.592;2023-09-12T12:38:24;28.48;;;18.42;;
30127;SDS011;16942;53.196;6.592;2023-09-12T12:40:50;26.65;;;16.60;;
30127;SDS011;16942;53.196;6.592;2023-09-12T12:43:16;23.40;;;17.20;;
30127;SDS011;16942;53.196;6.592;2023-09-12T12:45:54;23.10;;;16.83;;
30127;SDS011;16942;53.196;6.592;2023-09-12T12:48:33;30.85;;;16.88;;
30127;SDS011;16942;53.196;6.592;2023-09-12T12:50:59;31.02;;;17.42;;
30127;SDS011;16942;53.196;6.592;2023-09-12T12:53:38;26.17;;;17.15;;
30127;SDS011;16942;53.196;6.592;2023-09-12T12:56:04;23.13;;;13.45;;
30127;SDS011;16942;53.196;6.592;2023-09-12T12:58:30;20.70;;;14.15;;
30127;SDS011;16942;53.196;6.592;2023-09-12T13:00:56;22.88;;;14.63;;
30127;SDS011;16942;53.196;6.592;2023-09-12T13:03:22;16.48;;;11.65;;
30127;SDS011;16942;53.196;6.592;2023-09-12T13:05:48;21.48;;;14.55;;
30127;SDS011;16942;53.196;6.592;2023-09-12T13:08:14;19.90;;;12.07;;
30127;SDS011;16942;53.196;6.592;2023-09-12T13:10:40;21.80;;;11.00;;
30127;SDS011;16942;53.196;6.592;2023-09-12T13:13:07;12.75;;;9.43;;
30127;SDS011;16942;53.196;6.592;2023-09-12T13:15:34;16.75;;;10.55;;
30127;SDS011;16942;53.196;6.592;2023-09-12T13:18:00;16.50;;;9.65;;
30127;SDS011;16942;53.196;6.592;2023-09-12T13:20:26;20.52;;;10.23;;
30127;SDS011;16942;53.196;6.592;2023-09-12T13:22:52;29.05;;;11.27;;
30127;SDS011;16942;53.196;6.592;2023-09-12T13:25:18;20.75;;;11.65;;
30127;SDS011;16942;53.196;6.592;2023-09-12T13:27:46;14.77;;;11.55;;
30127;SDS011;16942;53.196;6.592;2023-09-12T13:30:12;15.07;;;11.85;;
30127;SDS011;16942;53.196;6.592;2023-09-12T13:32:38;20.17;;;11.98;;
30127;SDS011;16942;53.196;6.592;2023-09-12T13:35:04;19.70;;;11.77;;
30127;SDS011;16942;53.196;6.592;2023-09-12T13:37:32;16.00;;;10.75;;
30127;SDS011;16942;53.196;6.592;2023-09-12T13:39:58;12.55;;;9.73;;
30127;SDS011;16942;53.196;6.592;2023-09-12T13:42:24;13.18;;;9.57;;
30127;SDS011;16942;53.196;6.592;2023-09-12T13:44:55;16.67;;;10.60;;
30127;SDS011;16942;53.196;6.592;2023-09-12T13:47:21;16.15;;;10.00;;
30127;SDS011;16942;53.196;6.592;2023-09-12T13:49:48;14.90;;;9.10;;
30127;SDS011;16942;53.196;6.592;2023-09-12T13:52:16;9.93;;;8.35;;
30127;SDS011;16942;53.196;6.592;2023-09-12T13:54:42;16.42;;;9.80;;
30127;SDS011;16942;53.196;6.592;2023-09-12T13:57:08;11.30;;;8.32;;
30127;SDS011;16942;53.196;6.592;2023-09-12T13:59:34;11.75;;;9.10;;
30127;SDS011;16942;53.196;6.592;2023-09-12T14:02:00;12.45;;;7.35;;
30127;SDS011;16942;53.196;6.592;2023-09-12T14:04:26;14.68;;;12.02;;
30127;SDS011;16942;53.196;6.592;2023-09-12T14:06:52;13.88;;;11.27;;
30127;SDS011;16942;53.196;6.592;2023-09-12T14:09:18;17.05;;;9.82;;
30127;SDS011;16942;53.196;6.592;2023-09-12T14:11:44;11.10;;;7.93;;
30127;SDS011;16942;53.196;6.592;2023-09-12T14:14:12;9.73;;;8.02;;
30127;SDS011;16942;53.196;6.592;2023-09-12T14:16:38;9.85;;;7.60;;
30127;SDS011;16942;53.196;6.592;2023-09-12T14:19:04;8.18;;;7.35;;
30127;SDS011;16942;53.196;6.592;2023-09-12T14:21:30;10.00;;;7.82;;
30127;SDS011;16942;53.196;6.592;2023-09-12T14:23:57;10.65;;;8.27;;
30127;SDS011;16942;53.196;6.592;2023-09-12T14:26:23;11.20;;;7.28;;
30127;SDS011;16942;53.196;6.592;2023-09-12T14:28:49;13.38;;;7.15;;
30127;SDS011;16942;53.196;6.592;2023-09-12T14:31:15;7.82;;;6.40;;
30127;SDS011;16942;53.196;6.592;2023-09-12T14:33:42;6.55;;;5.90;;
30127;SDS011;16942;53.196;6.592;2023-09-12T14:36:08;9.40;;;6.63;;
30127;SDS011;16942;53.196;6.592;2023-09-12T14:38:34;11.55;;;6.13;;